Time;durP1;ratioP1;P1;durP2;ratioP2;P2;SDS_P1;SDS_P2;PMS_P1;PMS_P2;Temp;Humidity;BMP_temperature;BMP_pressure;BME280_temperature;BME280_humidity;BME280_pressure;Samples;Min_cycle;Max_cycle;Signal;HPM_P1;HPM_P2
2023/12/30 00:02:02;;;;;;;2.28;0.50;;;;;;;8.81;100.00;99749.16;5205631;28;20032;-73
2023/12/30 00:04:32;;;;;;;2.85;0.40;;;;;;;8.78;100.00;99753.63;5208583;28;20159;-75
2023/12/30 00:07:02;;;;;;;3.53;0.50;;;;;;;8.81;100.00;99756.09;5204687;28;20107;-75
2023/12/30 00:09:33;;;;;;;3.45;0.60;;;;;;;8.73;100.00;99750.38;5213586;28;20490;-75
2023/12/30 00:12:03;;;;;;;2.80;0.45;;;;;;;8.80;100.00;99757.88;5208761;28;20033;-75
2023/12/30 00:14:34;;;;;;;3.33;0.50;;;;;;;8.83;100.00;99755.16;5204716;28;20510;-74
2023/12/30 00:17:04;;;;;;;5.00;0.40;;;;;;;8.78;100.00;99759.72;5208368;28;20123;-75
2023/12/30 00:19:36;;;;;;;3.53;0.43;;;;;;;8.83;100.00;99764.69;5210925;28;20039;-74
2023/12/30 00:22:06;;;;;;;4.07;0.60;;;;;;;8.92;100.00;99746.94;5205754;28;20017;-75
2023/12/30 00:24:36;;;;;;;5.90;1.00;;;;;;;8.87;100.00;99761.91;5208829;28;20029;-74
2023/12/30 00:27:07;;;;;;;5.32;0.70;;;;;;;8.86;100.00;99760.22;5204774;28;20086;-75
2023/12/30 00:29:39;;;;;;;4.15;0.57;;;;;;;8.94;100.00;99768.59;5208345;28;20020;-75
2023/12/30 00:32:09;;;;;;;2.83;0.63;;;;;;;8.91;100.00;99763.47;5204523;28;20036;-75
2023/12/30 00:34:39;;;;;;;3.22;0.75;;;;;;;8.91;100.00;99770.47;5200704;28;20434;-75
2023/12/30 00:37:10;;;;;;;2.47;0.80;;;;;;;8.74;100.00;99772.91;5207026;28;20113;-75
2023/12/30 00:39:41;;;;;;;4.45;0.80;;;;;;;8.75;100.00;99770.22;5206242;28;20115;-75
2023/12/30 00:42:11;;;;;;;2.47;0.70;;;;;;;8.76;100.00;99756.28;5204117;28;20028;-75
2023/12/30 00:44:41;;;;;;;1.95;0.63;;;;;;;8.68;100.00;99766.19;5210678;28;20359;-76
2023/12/30 00:47:12;;;;;;;2.72;0.60;;;;;;;8.61;100.00;99766.50;5206327;28;20032;-75
2023/12/30 00:49:43;;;;;;;2.05;0.50;;;;;;;8.58;100.00;99756.22;5207000;28;20033;-75
2023/12/30 00:52:13;;;;;;;1.45;0.40;;;;;;;8.49;100.00;99773.06;5205265;28;20040;-75
2023/12/30 00:54:43;;;;;;;2.45;0.40;;;;;;;8.42;100.00;99761.16;5205223;28;20076;-75
2023/12/30 00:57:13;;;;;;;1.67;0.50;;;;;;;8.45;100.00;99775.84;5208759;28;20071;-75
2023/12/30 00:59:44;;;;;;;1.73;0.47;;;;;;;8.51;100.00;99771.22;5205128;28;20043;-75
2023/12/30 01:02:14;;;;;;;2.28;0.30;;;;;;;8.45;100.00;99740.25;5206182;28;20033;-73
2023/12/30 01:04:44;;;;;;;1.40;0.35;;;;;;;8.39;100.00;99748.28;5203647;28;21314;-75
2023/12/30 01:07:15;;;;;;;2.28;0.30;;;;;;;8.24;100.00;99750.66;5208817;28;20067;-75
2023/12/30 01:09:45;;;;;;;0.50;0.10;;;;;;;8.33;100.00;99765.91;5203192;28;20037;-75
2023/12/30 01:12:15;;;;;;;1.55;0.30;;;;;;;8.07;100.00;99756.47;5207971;28;20025;-75
2023/12/30 01:14:46;;;;;;;1.15;0.40;;;;;;;8.08;100.00;99758.16;5209833;28;20184;-75
2023/12/30 01:17:16;;;;;;;0.90;0.40;;;;;;;8.21;100.00;99762.03;5207058;28;20108;-75
2023/12/30 01:19:46;;;;;;;0.77;0.10;;;;;;;8.24;100.00;99774.91;5211087;28;20549;-75
2023/12/30 01:22:16;;;;;;;1.70;0.32;;;;;;;8.22;100.00;99761.13;5215881;28;20104;-74
2023/12/30 01:24:47;;;;;;;1.85;0.30;;;;;;;8.21;100.00;99775.03;5214116;28;20029;-75
2023/12/30 01:27:17;;;;;;;1.13;0.50;;;;;;;8.15;100.00;99792.59;5218351;28;20045;-74
2023/12/30 01:29:47;;;;;;;0.57;0.20;;;;;;;8.21;100.00;99790.66;5210476;28;20608;-75
2023/12/30 01:32:18;;;;;;;1.15;0.20;;;;;;;8.19;100.00;99797.66;5206730;28;20041;-75
2023/12/30 01:34:48;;;;;;;1.02;0.30;;;;;;;8.14;100.00;99799.56;5210315;28;20496;-73
2023/12/30 01:37:18;;;;;;;1.58;0.30;;;;;;;8.23;100.00;99811.44;5212634;28;20060;-75
2023/12/30 01:39:49;;;;;;;1.10;0.10;;;;;;;8.32;100.00;99817.13;5211032;28;20060;-75
2023/12/30 01:42:19;;;;;;;0.40;0.20;;;;;;;8.34;100.00;99817.91;5209292;28;20078;-75
2023/12/30 01:44:49;;;;;;;1.52;0.25;;;;;;;8.19;100.00;99831.50;5212296;28;20066;-74
2023/12/30 01:47:20;;;;;;;1.02;0.30;;;;;;;8.23;100.00;99827.88;5210640;28;20029;-75
2023/12/30 01:49:51;;;;;;;0.75;0.25;;;;;;;7.94;100.00;99816.84;5209130;28;20055;-74
2023/12/30 01:52:21;;;;;;;0.63;0.20;;;;;;;7.90;100.00;99816.09;5210805;28;20305;-74
2023/12/30 01:54:52;;;;;;;0.25;0.10;;;;;;;7.90;100.00;99820.47;5213951;28;20064;-74
2023/12/30 01:57:22;;;;;;;1.65;0.10;;;;;;;7.90;99.99;99829.09;5211922;28;20248;-74
2023/12/30 01:59:53;;;;;;;1.20;0.20;;;;;;;7.83;100.00;99818.97;5207348;28;20060;-74
2023/12/30 02:02:23;;;;;;;0.75;0.38;;;;;;;7.76;100.00;99830.50;5209746;28;20020;-75
2023/12/30 02:04:55;;;;;;;0.40;0.13;;;;;;;7.77;100.00;99825.28;5210275;28;20037;-74
2023/12/30 02:07:25;;;;;;;0.60;0.20;;;;;;;7.74;100.00;99822.75;5214745;28;20037;-75
2023/12/30 02:09:55;;;;;;;1.95;0.30;;;;;;;7.74;100.00;99824.53;5234999;28;20545;-74
2023/12/30 02:12:26;;;;;;;0.77;0.30;;;;;;;7.76;99.86;99828.78;5209002;28;20037;-75
2023/12/30 02:15:21;;;;;;;0.20;0.13;;;;;;;7.71;99.97;99833.28;5209342;28;20123;-74
2023/12/30 02:17:55;;;;;;;1.10;0.22;;;;;;;7.71;100.00;99829.84;5208445;28;20517;-74
2023/12/30 02:20:25;;;;;;;0.93;0.30;;;;;;;7.58;99.70;99836.38;5211776;28;20412;-73
2023/12/30 02:22:56;;;;;;;1.20;0.30;;;;;;;7.65;99.36;99833.50;5210052;28;20021;-74
2023/12/30 02:25:26;;;;;;;1.05;0.25;;;;;;;7.59;99.00;99838.94;5208530;28;20029;-75
2023/12/30 02:27:56;;;;;;;0.30;0.05;;;;;;;7.49;99.20;99842.75;5212892;28;20056;-75
2023/12/30 02:30:27;;;;;;;1.75;0.20;;;;;;;7.51;98.59;99856.53;5213932;28;20112;-74
2023/12/30 02:32:57;;;;;;;1.17;0.20;;;;;;;7.51;99.10;99855.69;5206898;28;20112;-74
2023/12/30 02:35:27;;;;;;;0.38;0.10;;;;;;;7.50;98.80;99860.03;5208000;28;20623;-74
2023/12/30 02:37:58;;;;;;;0.95;0.13;;;;;;;7.46;99.42;99867.97;5210089;28;20539;-74
2023/12/30 02:40:28;;;;;;;2.72;0.20;;;;;;;7.40;99.65;99863.88;5207448;28;20034;-74
2023/12/30 02:42:58;;;;;;;1.52;0.20;;;;;;;7.53;100.00;99859.94;5212788;28;20070;-74
2023/12/30 02:45:29;;;;;;;3.95;0.77;;;;;;;7.52;99.68;99860.81;5212760;28;20029;-73
2023/12/30 02:47:59;;;;;;;1.80;0.20;;;;;;;7.50;99.55;99870.44;5209651;28;20040;-74
2023/12/30 02:50:30;;;;;;;0.73;0.20;;;;;;;7.55;99.00;99870.28;5208175;28;20021;-75
2023/12/30 02:53:00;;;;;;;2.42;0.70;;;;;;;7.50;99.74;99880.84;5208788;28;20406;-75
2023/12/30 02:55:30;;;;;;;2.42;0.20;;;;;;;7.58;99.52;99868.44;5210187;28;20720;-74
2023/12/30 02:58:00;;;;;;;1.45;0.40;;;;;;;7.59;99.38;99877.94;5215113;28;20147;-74
2023/12/30 03:00:31;;;;;;;3.75;0.50;;;;;;;7.55;100.00;99883.28;5213539;28;20116;-74
2023/12/30 03:03:01;;;;;;;1.10;0.22;;;;;;;7.62;100.00;99892.56;5206129;28;20549;-74
2023/12/30 03:05:32;;;;;;;2.05;0.47;;;;;;;7.65;100.00;99884.63;5207146;28;20037;-74
2023/12/30 03:08:03;;;;;;;1.85;0.15;;;;;;;7.67;100.00;99886.28;5209431;28;20113;-74
2023/12/30 03:10:33;;;;;;;2.35;0.20;;;;;;;7.65;100.00;99895.91;5207917;28;20112;-74
2023/12/30 03:13:04;;;;;;;5.43;1.70;;;;;;;7.65;100.00;99897.66;5229744;28;20020;-74
2023/12/30 03:15:34;;;;;;;2.28;0.47;;;;;;;7.75;100.00;99886.91;5207687;28;20481;-74
2023/12/30 03:18:04;;;;;;;1.20;0.35;;;;;;;7.84;99.89;99890.94;5206476;28;20025;-74
2023/12/30 03:20:34;;;;;;;3.15;0.57;;;;;;;7.80;100.00;99882.38;5212965;28;20390;-74
2023/12/30 03:23:05;;;;;;;3.92;0.40;;;;;;;7.75;100.00;99897.31;5206361;28;20512;-74
2023/12/30 03:25:37;;;;;;;2.10;0.60;;;;;;;7.78;99.91;99894.59;5207086;28;20075;-74
2023/12/30 03:28:07;;;;;;;1.65;0.40;;;;;;;7.74;99.91;99897.34;5208671;28;20029;-74
2023/12/30 03:30:37;;;;;;;2.30;0.50;;;;;;;7.78;100.00;99905.00;5201780;28;20029;-74
2023/12/30 03:33:08;;;;;;;3.40;0.47;;;;;;;7.76;99.87;99909.41;5204515;28;20124;-74
2023/12/30 03:35:38;;;;;;;1.05;0.20;;;;;;;7.70;100.00;99920.00;5206269;28;20035;-74
2023/12/30 03:38:08;;;;;;;1.00;0.30;;;;;;;7.70;100.00;99920.00;5209850;28;20116;-74
2023/12/30 03:40:39;;;;;;;2.42;0.50;;;;;;;7.67;100.00;99933.09;5204480;28;20379;-74
2023/12/30 03:43:09;;;;;;;1.38;0.30;;;;;;;7.59;100.00;99916.94;5207858;28;20060;-74
2023/12/30 03:45:39;;;;;;;2.97;0.57;;;;;;;7.61;100.00;99917.72;5204642;28;20052;-74
2023/12/30 03:48:10;;;;;;;2.88;0.40;;;;;;;7.51;100.00;99933.69;5208677;28;20025;-74
2023/12/30 03:50:40;;;;;;;3.80;0.73;;;;;;;7.46;100.00;99925.16;5205303;28;20103;-75
2023/12/30 03:53:10;;;;;;;2.45;0.40;;;;;;;7.42;100.00;99940.03;5210078;28;20113;-74
2023/12/30 03:55:41;;;;;;;1.65;0.40;;;;;;;7.50;100.00;99930.22;5211699;28;20482;-74
2023/12/30 03:58:11;;;;;;;3.70;0.50;;;;;;;7.54;100.00;99936.19;5210896;28;20029;-74
2023/12/30 04:00:42;;;;;;;3.75;0.50;;;;;;;7.52;100.00;99936.22;5207987;28;20021;-74
2023/12/30 04:03:12;;;;;;;2.17;0.47;;;;;;;7.48;100.00;99929.44;5205542;28;20202;-72
2023/12/30 04:05:42;;;;;;;3.97;0.77;;;;;;;7.43;100.00;99933.94;5211410;28;20033;-74
2023/12/30 04:08:13;;;;;;;2.90;0.70;;;;;;;7.55;100.00;99946.50;5208494;28;20035;-73
2023/12/30 04:10:43;;;;;;;1.05;0.30;;;;;;;7.49;100.00;99946.72;5210692;28;20044;-75
2023/12/30 04:13:13;;;;;;;2.17;0.57;;;;;;;7.58;100.00;99955.97;5209804;28;20032;-72
2023/12/30 04:15:44;;;;;;;0.85;0.32;;;;;;;7.61;100.00;99946.31;5207915;28;20100;-75
2023/12/30 04:18:14;;;;;;;1.52;0.55;;;;;;;7.55;100.00;99945.69;5208850;28;20063;-74
2023/12/30 04:20:44;;;;;;;4.85;0.60;;;;;;;7.53;100.00;99957.88;5209718;28;20501;-74
2023/12/30 04:23:15;;;;;;;4.45;0.60;;;;;;;7.56;100.00;99953.41;5209444;28;20067;-74
2023/12/30 04:25:45;;;;;;;1.52;0.30;;;;;;;7.55;100.00;99959.50;5208316;28;20112;-75
2023/12/30 04:28:15;;;;;;;2.13;0.45;;;;;;;7.49;100.00;99958.91;5210899;28;20025;-75
2023/12/30 04:30:45;;;;;;;2.10;0.30;;;;;;;7.44;100.00;99958.16;5207698;28;20040;-75
2023/12/30 04:33:16;;;;;;;2.50;0.38;;;;;;;7.49;100.00;99967.53;5208340;28;20111;-74
2023/12/30 04:35:46;;;;;;;3.78;0.50;;;;;;;7.50;99.92;99961.41;5206254;28;20065;-74
2023/12/30 04:38:18;;;;;;;3.83;0.68;;;;;;;7.42;100.00;99965.16;5211305;28;20031;-75
2023/12/30 04:40:48;;;;;;;3.40;0.57;;;;;;;7.36;100.00;99970.59;5208068;28;20111;-75
2023/12/30 04:43:18;;;;;;;5.22;0.55;;;;;;;7.52;99.93;99972.63;5210137;28;20090;-74
2023/12/30 04:45:49;;;;;;;10.25;1.10;;;;;;;7.39;100.00;99984.31;5206792;28;20051;-75
2023/12/30 04:48:19;;;;;;;2.28;0.70;;;;;;;7.35;100.00;99979.28;5205411;28;20032;-74
2023/12/30 04:50:49;;;;;;;3.25;0.57;;;;;;;7.33;100.00;99979.31;5206635;28;20029;-74
2023/12/30 04:53:20;;;;;;;3.42;0.90;;;;;;;7.35;100.00;99981.88;5208872;28;20112;-74
2023/12/30 04:55:50;;;;;;;2.45;0.57;;;;;;;7.29;100.00;99975.13;5209270;28;20490;-74
2023/12/30 04:58:20;;;;;;;2.17;0.50;;;;;;;7.28;100.00;99988.16;5210293;28;20036;-74
2023/12/30 05:00:50;;;;;;;2.60;0.50;;;;;;;7.24;100.00;99986.56;5207995;28;20139;-75
2023/12/30 05:03:21;;;;;;;2.92;0.75;;;;;;;7.16;100.00;99982.50;5205191;28;20410;-75
2023/12/30 05:05:51;;;;;;;11.57;3.35;;;;;;;7.24;100.00;99985.72;5208770;28;20110;-75
2023/12/30 05:08:21;;;;;;;4.60;0.90;;;;;;;7.13;100.00;99983.44;5209113;28;20490;-75
2023/12/30 05:10:51;;;;;;;6.38;0.85;;;;;;;7.12;100.00;99991.28;5208894;28;20485;-74
2023/12/30 05:13:22;;;;;;;3.20;0.60;;;;;;;7.14;100.00;99987.72;5205739;28;20078;-74
2023/12/30 05:15:52;;;;;;;3.92;0.80;;;;;;;7.10;100.00;99998.28;5205525;28;20032;-74
2023/12/30 05:18:23;;;;;;;5.60;0.60;;;;;;;7.14;100.00;99995.53;5207886;28;20463;-74
2023/12/30 05:20:53;;;;;;;3.08;0.50;;;;;;;7.11;100.00;100005.19;5207904;28;20037;-74
2023/12/30 05:23:23;;;;;;;11.88;0.95;;;;;;;7.08;100.00;99994.88;5207453;28;20060;-74
2023/12/30 05:25:53;;;;;;;6.55;0.98;;;;;;;7.16;99.88;99996.34;5206552;28;20502;-74
2023/12/30 05:28:24;;;;;;;2.88;0.60;;;;;;;7.14;100.00;99995.53;5209903;28;20371;-74
2023/12/30 05:30:54;;;;;;;5.13;0.90;;;;;;;7.13;100.00;100003.38;5205643;28;20033;-75
2023/12/30 05:33:24;;;;;;;6.13;0.90;;;;;;;7.13;100.00;100000.78;5206896;28;20064;-75
2023/12/30 05:35:55;;;;;;;5.97;0.60;;;;;;;7.08;100.00;99987.94;5207290;28;20473;-74
2023/12/30 05:38:25;;;;;;;7.47;0.65;;;;;;;7.10;100.00;100006.09;5209989;28;20037;-74
2023/12/30 05:40:56;;;;;;;4.35;0.80;;;;;;;7.06;100.00;100012.25;5208615;28;20029;-75
2023/12/30 05:43:26;;;;;;;4.38;0.63;;;;;;;7.05;100.00;100016.59;5207687;28;20044;-74
2023/12/30 05:45:57;;;;;;;4.25;0.60;;;;;;;7.11;99.56;100018.16;5206761;28;20032;-74
2023/12/30 05:48:27;;;;;;;5.53;0.70;;;;;;;7.07;99.85;100026.97;5204992;28;20510;-74
2023/12/30 05:50:57;;;;;;;6.03;0.82;;;;;;;7.10;99.46;100025.09;5206533;28;20025;-75
2023/12/30 05:53:28;;;;;;;7.00;0.80;;;;;;;7.01;100.00;100033.19;5210152;28;20136;-74
2023/12/30 05:55:59;;;;;;;5.05;0.70;;;;;;;7.04;100.00;100027.91;5207737;28;20207;-75
2023/12/30 05:58:29;;;;;;;4.28;0.70;;;;;;;7.06;100.00;100028.69;5212786;28;20029;-74
2023/12/30 06:00:59;;;;;;;3.88;0.93;;;;;;;7.05;99.87;100021.81;5209029;28;20029;-74
2023/12/30 06:03:30;;;;;;;6.22;0.73;;;;;;;7.04;100.00;100033.09;5213204;28;20489;-74
2023/12/30 06:06:00;;;;;;;8.45;1.42;;;;;;;7.10;100.00;100034.66;5211125;28;20036;-74
2023/12/30 06:08:33;;;;;;;3.75;0.80;;;;;;;7.09;100.00;100045.94;5214512;28;20029;-74
2023/12/30 06:11:03;;;;;;;5.35;1.33;;;;;;;7.03;100.00;100048.72;5208389;28;20103;-74
2023/12/30 06:13:34;;;;;;;3.00;0.57;;;;;;;7.05;100.00;100046.91;5212082;28;20021;-74
2023/12/30 06:16:08;;;;;;;8.77;2.20;;;;;;;6.99;100.00;100057.50;5209858;28;20108;-75
2023/12/30 06:18:38;;;;;;;14.75;2.40;;;;;;;7.00;100.00;100059.19;5211333;28;20025;-74
2023/12/30 06:21:08;;;;;;;6.55;1.25;;;;;;;6.99;100.00;100057.50;5209155;28;20032;-74
2023/12/30 06:23:39;;;;;;;9.88;1.27;;;;;;;6.99;100.00;100062.69;5225278;28;20481;-75
2023/12/30 06:26:09;;;;;;;6.13;0.77;;;;;;;6.99;100.00;100065.28;5211348;28;20037;-75
2023/12/30 06:28:39;;;;;;;9.45;1.48;;;;;;;6.98;100.00;100063.59;5213018;28;20103;-75
2023/12/30 06:31:09;;;;;;;6.47;1.15;;;;;;;6.95;100.00;100072.31;5210544;28;20040;-75
2023/12/30 06:33:40;;;;;;;6.63;1.17;;;;;;;6.91;100.00;100082.84;5212202;28;20430;-75
2023/12/30 06:36:19;;;;;;;6.68;1.02;;;;;;;6.84;100.00;100084.78;5211364;28;20014;-75
2023/12/30 06:38:50;;;;;;;5.78;0.85;;;;;;;6.95;100.00;100087.06;5214110;28;20024;-75
2023/12/30 06:41:21;;;;;;;7.40;1.05;;;;;;;6.95;100.00;100093.09;5213058;28;20025;-74
2023/12/30 06:43:51;;;;;;;13.50;1.30;;;;;;;6.94;100.00;100086.19;5210488;28;20651;-74
2023/12/30 06:46:22;;;;;;;7.03;1.10;;;;;;;7.00;100.00;100099.03;5212923;28;20029;-75
2023/12/30 06:48:52;;;;;;;8.80;1.75;;;;;;;7.02;100.00;100102.44;5209786;28;20500;-74
2023/12/30 06:51:22;;;;;;;10.23;1.65;;;;;;;6.97;100.00;100106.03;5213259;28;20110;-75
2023/12/30 06:53:53;;;;;;;6.20;1.35;;;;;;;6.92;100.00;100107.94;5210774;28;20032;-74
2023/12/30 06:56:24;;;;;;;7.35;1.25;;;;;;;6.85;100.00;100108.97;5213376;28;20033;-75
2023/12/30 06:58:54;;;;;;;10.05;1.30;;;;;;;7.04;100.00;100117.94;5210495;28;20387;-75
2023/12/30 07:01:25;;;;;;;7.63;1.38;;;;;;;6.98;100.00;100128.53;5212929;28;20069;-74
2023/12/30 07:03:55;;;;;;;8.02;1.98;;;;;;;6.91;100.00;100133.03;5209581;28;20108;-75
2023/12/30 07:06:25;;;;;;;9.20;1.90;;;;;;;6.98;100.00;100133.72;5215081;28;20036;-75
2023/12/30 07:08:56;;;;;;;6.55;1.27;;;;;;;7.05;100.00;100135.25;5205168;28;20120;-75
2023/12/30 07:11:26;;;;;;;7.13;1.55;;;;;;;7.06;100.00;100137.81;5213534;28;20078;-75
2023/12/30 07:13:56;;;;;;;7.85;1.13;;;;;;;7.03;100.00;100144.81;5209080;28;20108;-75
2023/12/30 07:16:26;;;;;;;6.00;1.23;;;;;;;7.01;100.00;100149.22;5213168;28;20035;-75
2023/12/30 07:18:57;;;;;;;8.18;1.40;;;;;;;7.07;100.00;100154.25;5209538;28;20537;-75
2023/12/30 07:21:27;;;;;;;6.38;1.20;;;;;;;7.10;100.00;100149.81;5212658;28;20470;-75
2023/12/30 07:23:57;;;;;;;6.72;1.60;;;;;;;7.02;100.00;100167.38;5208180;28;20028;-75
2023/12/30 07:26:28;;;;;;;9.25;1.40;;;;;;;7.01;100.00;100157.00;5207700;28;20044;-75
2023/12/30 07:28:59;;;;;;;6.63;1.48;;;;;;;7.05;100.00;100158.63;5207829;28;20403;-75
2023/12/30 07:31:29;;;;;;;6.35;1.00;;;;;;;7.00;100.00;100168.28;5207153;28;20045;-75
2023/12/30 07:33:59;;;;;;;7.68;1.27;;;;;;;7.00;100.00;100179.56;5207406;28;20025;-74
2023/12/30 07:36:31;;;;;;;6.78;1.30;;;;;;;7.09;100.00;100165.47;5210075;28;20044;-75
2023/12/30 07:39:01;;;;;;;8.40;1.58;;;;;;;7.06;100.00;100168.13;5210395;28;20022;-74
2023/12/30 07:41:32;;;;;;;10.55;1.00;;;;;;;7.12;99.65;100173.16;5207404;28;20053;-73
2023/12/30 07:44:02;;;;;;;6.15;1.20;;;;;;;7.08;99.75;100172.38;5207768;28;20024;-74
2023/12/30 07:46:32;;;;;;;6.82;1.17;;;;;;;7.03;100.00;100171.66;5207861;28;20052;-72
2023/12/30 07:49:03;;;;;;;6.05;1.20;;;;;;;7.11;99.90;100174.06;5206959;28;20029;-75
2023/12/30 07:51:33;;;;;;;6.18;1.10;;;;;;;7.10;99.81;100169.75;5208449;28;20394;-74
2023/12/30 07:54:03;;;;;;;4.38;0.98;;;;;;;7.07;100.00;100164.66;5208755;28;20047;-75
2023/12/30 07:56:34;;;;;;;8.43;1.50;;;;;;;7.18;99.10;100175.56;5211470;28;20025;-75
2023/12/30 07:59:04;;;;;;;8.43;1.30;;;;;;;7.26;98.10;100166.66;5205244;28;20137;-75
2023/12/30 08:01:40;;;;;;;11.02;1.98;;;;;;;7.36;97.76;100176.75;5204408;28;20021;-72
2023/12/30 08:04:11;;;;;;;6.40;1.15;;;;;;;7.47;97.00;100166.91;5205947;28;20036;-75
2023/12/30 08:06:41;;;;;;;6.40;1.20;;;;;;;7.57;95.75;100178.75;5205220;28;20420;-74
2023/12/30 08:09:12;;;;;;;10.40;1.38;;;;;;;7.69;95.80;100175.75;5208113;28;20017;-75
2023/12/30 08:11:42;;;;;;;9.70;1.70;;;;;;;7.93;93.46;100180.22;5210699;28;20056;-74
2023/12/30 08:14:13;;;;;;;10.93;1.50;;;;;;;8.02;92.63;100185.13;5210078;28;20037;-75
2023/12/30 08:16:44;;;;;;;8.13;1.75;;;;;;;8.21;91.80;100175.84;5210331;28;20043;-75
2023/12/30 08:19:14;;;;;;;3.92;1.13;;;;;;;8.25;91.64;100190.47;5211028;28;20036;-75
2023/12/30 08:21:45;;;;;;;8.13;1.33;;;;;;;8.25;90.67;100192.22;5214102;28;20063;-75
2023/12/30 08:24:16;;;;;;;6.95;1.50;;;;;;;8.19;91.00;100185.47;5211444;28;20055;-76
2023/12/30 08:26:47;;;;;;;8.90;1.98;;;;;;;8.13;91.15;100197.78;5208366;28;20033;-75
2023/12/30 08:29:17;;;;;;;8.07;1.30;;;;;;;8.12;91.06;100199.56;5207574;28;20036;-75
2023/12/30 08:31:47;;;;;;;9.18;1.42;;;;;;;7.99;91.76;100195.63;5209404;28;20044;-75
2023/12/30 08:34:20;;;;;;;6.93;1.13;;;;;;;8.22;91.70;100193.16;5208088;28;20446;-76
2023/12/30 08:36:50;;;;;;;6.35;1.10;;;;;;;8.36;90.79;100192.75;5205836;28;20044;-76
2023/12/30 08:39:21;;;;;;;4.85;1.10;;;;;;;8.30;90.96;100196.38;5211984;28;20037;-75
2023/12/30 08:41:52;;;;;;;9.48;1.50;;;;;;;8.26;91.57;100194.78;5206914;28;20063;-75
2023/12/30 08:44:22;;;;;;;7.20;1.30;;;;;;;8.07;92.18;100201.44;5212782;28;20031;-76
2023/12/30 08:46:52;;;;;;;6.05;1.30;;;;;;;8.13;92.96;100196.03;5212672;28;20036;-75
2023/12/30 08:49:23;;;;;;;5.50;1.25;;;;;;;8.25;92.44;100194.84;5208243;28;20082;-75
2023/12/30 08:51:53;;;;;;;5.78;1.10;;;;;;;8.35;92.15;100202.28;5215459;28;20591;-75
2023/12/30 08:54:23;;;;;;;4.60;1.05;;;;;;;8.55;91.35;100210.28;5210097;28;20024;-75
2023/12/30 08:56:54;;;;;;;7.28;1.10;;;;;;;8.56;90.87;100209.38;5208368;28;20093;-75
2023/12/30 08:59:25;;;;;;;4.95;1.23;;;;;;;8.50;90.88;100204.41;5208481;28;20617;-75
2023/12/30 09:01:55;;;;;;;8.30;1.42;;;;;;;8.57;91.23;100213.69;5204700;28;20040;-75
2023/12/30 09:04:26;;;;;;;7.28;1.40;;;;;;;8.57;90.86;100212.88;5210549;28;20082;-75
2023/12/30 09:06:56;;;;;;;7.05;1.20;;;;;;;8.63;91.81;100221.31;5205832;28;20070;-74
2023/12/30 09:09:27;;;;;;;10.77;1.42;;;;;;;8.79;90.40;100225.13;5206078;28;20048;-75
2023/12/30 09:11:57;;;;;;;9.57;1.75;;;;;;;8.62;91.14;100237.84;5207138;28;20276;-75
2023/12/30 09:14:28;;;;;;;4.75;1.10;;;;;;;8.71;90.32;100232.31;5204269;28;20177;-75
2023/12/30 09:16:58;;;;;;;9.10;1.33;;;;;;;8.63;90.58;100231.75;5212497;28;20075;-76
2023/12/30 09:19:29;;;;;;;8.73;1.55;;;;;;;8.47;91.46;100243.56;5207873;28;20021;-75
2023/12/30 09:21:59;;;;;;;3.78;1.20;;;;;;;8.55;91.42;100259.78;5207760;28;20563;-76
2023/12/30 09:24:30;;;;;;;6.22;1.15;;;;;;;8.61;91.31;100253.53;5206063;28;20167;-75
2023/12/30 09:27:00;;;;;;;8.20;1.20;;;;;;;8.69;90.84;100262.78;5211811;28;20409;-75
2023/12/30 09:29:30;;;;;;;4.68;1.17;;;;;;;8.81;91.04;100265.00;5207171;28;20036;-75
2023/12/30 09:32:01;;;;;;;12.00;1.25;;;;;;;8.92;90.43;100267.25;5207594;28;20426;-75
2023/12/30 09:34:31;;;;;;;7.47;1.33;;;;;;;8.96;89.13;100271.44;5217140;28;20057;-75
2023/12/30 09:37:02;;;;;;;5.25;0.90;;;;;;;9.04;89.25;100272.88;5212027;28;20033;-75
2023/12/30 09:39:32;;;;;;;7.40;1.50;;;;;;;9.10;89.29;100282.25;5211825;28;20028;-75
2023/12/30 09:42:03;;;;;;;6.28;1.48;;;;;;;9.13;89.13;100288.22;5209802;28;20026;-75
2023/12/30 09:44:34;;;;;;;6.63;1.58;;;;;;;9.22;89.44;100287.88;5211325;28;20060;-75
2023/12/30 09:47:10;;;;;;;9.38;2.10;;;;;;;9.19;89.65;100294.06;5212589;28;20494;-75
2023/12/30 09:49:42;;;;;;;6.63;1.20;;;;;;;9.29;88.26;100287.63;5216437;28;20045;-75
2023/12/30 09:52:13;;;;;;;10.45;1.60;;;;;;;9.44;88.11;100294.03;5215317;28;20021;-76
2023/12/30 09:54:43;;;;;;;8.88;1.60;;;;;;;9.65;86.53;100293.28;5211863;28;20058;-75
2023/12/30 09:57:14;;;;;;;8.57;2.15;;;;;;;9.65;86.82;100290.69;5210203;28;20482;-75
2023/12/30 09:59:47;;;;;;;5.65;1.48;;;;;;;9.91;85.72;100290.56;5211870;28;20119;-75
2023/12/30 10:02:17;;;;;;;7.50;1.30;;;;;;;10.03;85.45;100277.09;5213687;28;20387;-75
2023/12/30 10:04:49;;;;;;;5.30;1.38;;;;;;;10.04;85.31;100291.84;5207790;28;20028;-76
2023/12/30 10:07:19;;;;;;;8.00;1.63;;;;;;;9.89;85.24;100288.03;5211795;28;20056;-75
2023/12/30 10:09:51;;;;;;;5.85;1.30;;;;;;;9.97;85.43;100285.13;5212082;28;20020;-75
2023/12/30 10:12:23;;;;;;;6.40;1.27;;;;;;;9.93;84.96;100293.97;5210750;28;20440;-75
2023/12/30 10:14:53;;;;;;;8.75;1.50;;;;;;;10.03;83.75;100295.38;5216016;28;20041;-74
2023/12/30 10:17:24;;;;;;;7.28;1.30;;;;;;;9.97;84.96;100285.13;5213213;28;20017;-76
2023/12/30 10:19:54;;;;;;;10.43;1.75;;;;;;;9.90;84.22;100296.69;5217255;28;20037;-74
2023/12/30 10:22:24;;;;;;;6.80;1.00;;;;;;;9.84;84.81;100283.88;5214161;28;20029;-75
2023/12/30 10:24:55;;;;;;;8.88;1.63;;;;;;;9.89;84.66;100290.63;5212077;28;20601;-74
2023/12/30 10:27:25;;;;;;;5.80;1.05;;;;;;;9.92;84.17;100287.03;5210236;28;20025;-75
2023/12/30 10:29:55;;;;;;;7.38;2.03;;;;;;;9.67;85.22;100291.47;5215572;28;20055;-76
2023/12/30 10:32:26;;;;;;;9.75;1.40;;;;;;;9.60;85.27;100284.75;5219803;28;20053;-75
2023/12/30 10:34:56;;;;;;;5.30;1.08;;;;;;;9.58;85.64;100292.66;5215067;28;20036;-74
2023/12/30 10:37:29;;;;;;;8.45;1.50;;;;;;;9.61;85.56;100286.47;5216972;28;20116;-75
2023/12/30 10:40:00;;;;;;;5.82;1.52;;;;;;;9.58;85.64;100283.97;5213928;28;20025;-75
2023/12/30 10:42:30;;;;;;;10.95;1.60;;;;;;;9.64;86.25;100276.78;5213210;28;20474;-75
2023/12/30 10:45:01;;;;;;;8.77;1.63;;;;;;;9.57;85.46;100295.31;5209939;28;20040;-74
2023/12/30 10:47:36;;;;;;;5.88;1.50;;;;;;;9.66;86.54;100280.19;5212796;28;20107;-75
2023/12/30 10:50:09;;;;;;;7.82;1.13;;;;;;;9.60;85.58;100272.59;5214766;28;20028;-74
2023/12/30 10:52:55;;;;;;;6.78;1.60;;;;;;;9.67;85.36;100281.03;5209402;28;20398;-74
2023/12/30 10:55:30;;;;;;;;;;;;;;;9.70;84.67;100270.50;5216228;28;20029;-75
2023/12/30 10:58:13;;;;;;;7.15;1.25;;;;;;;9.75;84.79;100279.00;5214761;28;19985;-75
2023/12/30 11:00:48;;;;;;;4.47;1.00;;;;;;;9.78;85.07;100284.09;5212540;28;20087;-74
2023/12/30 11:03:20;;;;;;;10.73;1.83;;;;;;;9.90;84.61;100281.91;5213814;28;20021;-74
2023/12/30 11:05:57;;;;;;;12.23;1.90;;;;;;;9.86;84.91;100290.72;5211807;28;20112;-75
2023/12/30 11:08:28;;;;;;;6.97;1.60;;;;;;;9.83;83.88;100288.25;5216726;28;20025;-75
2023/12/30 11:11:01;;;;;;;7.93;2.15;;;;;;;9.64;84.46;100276.78;5212660;28;20028;-74
2023/12/30 11:13:41;;;;;;;6.20;1.20;;;;;;;9.75;83.80;100269.41;5212815;28;20498;-75
2023/12/30 11:16:13;;;;;;;4.90;1.30;;;;;;;9.67;84.05;100274.06;5205786;28;20075;-75
2023/12/30 11:18:55;;;;;;;6.18;1.63;;;;;;;9.67;83.66;100270.59;5211160;28;20087;-74
2023/12/30 11:21:42;;;;;;;9.63;1.83;;;;;;;9.76;83.84;100267.63;5217267;28;20037;-75
2023/12/30 11:24:18;;;;;;;5.25;1.80;;;;;;;9.90;83.82;100273.19;5210992;28;20025;-75
2023/12/30 11:26:48;;;;;;;;;;;;;;;9.86;83.63;100269.84;5217799;28;20029;-74
2023/12/30 11:29:20;;;;;;;9.47;2.53;;;;;;;9.91;83.80;100272.28;5213088;28;19917;-75
2023/12/30 11:31:52;;;;;;;10.13;1.80;;;;;;;9.79;84.28;100268.38;5210999;28;20314;-74
2023/12/30 11:34:24;;;;;;;9.38;1.13;;;;;;;9.90;84.21;100271.47;5212383;28;20236;-74
2023/12/30 11:36:58;;;;;;;8.38;2.70;;;;;;;9.80;84.69;100267.47;5217049;28;20067;-74
2023/12/30 11:39:31;;;;;;;4.70;1.45;;;;;;;10.01;84.23;100265.81;5208138;28;20402;-75
2023/12/30 11:42:03;;;;;;;8.95;1.77;;;;;;;10.03;84.09;100258.81;5210055;28;20062;-74
2023/12/30 11:44:33;;;;;;;7.93;1.60;;;;;;;10.00;83.45;100253.69;5210904;28;20100;-75
2023/12/30 11:47:04;;;;;;;7.55;1.55;;;;;;;9.88;83.71;100256.75;5208410;28;20162;-75
2023/12/30 11:49:35;;;;;;;11.25;2.22;;;;;;;9.98;83.92;100253.72;5210752;28;20043;-73